sensor_id;sensor_type;location;lat;lon;timestamp;temperature;humidity
22925;DHT22;11628;51.072;3.712;2022-09-29T00:00:29;10.80;99.90
22925;DHT22;11628;51.072;3.712;2022-09-29T00:02:55;10.70;99.90
22925;DHT22;11628;51.072;3.712;2022-09-29T00:05:21;10.70;99.90
22925;DHT22;11628;51.072;3.712;2022-09-29T00:07:47;10.70;99.90
22925;DHT22;11628;51.072;3.712;2022-09-29T00:10:13;10.60;99.90
22925;DHT22;11628;51.072;3.712;2022-09-29T00:12:38;10.60;99.90
22925;DHT22;11628;51.072;3.712;2022-09-29T00:15:05;10.50;99.90
22925;DHT22;11628;51.072;3.712;2022-09-29T00:17:31;10.40;99.90
22925;DHT22;11628;51.072;3.712;2022-09-29T00:19:57;10.50;99.90
22925;DHT22;11628;51.072;3.712;2022-09-29T00:22:23;10.40;99.90
22925;DHT22;11628;51.072;3.712;2022-09-29T00:24:52;10.30;99.90
22925;DHT22;11628;51.072;3.712;2022-09-29T00:27:18;10.40;99.90
22925;DHT22;11628;51.072;3.712;2022-09-29T00:29:44;10.40;99.90
22925;DHT22;11628;51.072;3.712;2022-09-29T00:32:10;10.40;99.90
22925;DHT22;11628;51.072;3.712;2022-09-29T00:34:36;10.30;99.90
22925;DHT22;11628;51.072;3.712;2022-09-29T00:37:02;10.30;99.90
22925;DHT22;11628;51.072;3.712;2022-09-29T00:39:27;10.20;99.90
22925;DHT22;11628;51.072;3.712;2022-09-29T00:42:03;10.30;99.90
22925;DHT22;11628;51.072;3.712;2022-09-29T00:45:04;10.30;99.90
22925;DHT22;11628;51.072;3.712;2022-09-29T00:47:34;10.30;99.90
22925;DHT22;11628;51.072;3.712;2022-09-29T00:50:20;10.30;99.90
22925;DHT22;11628;51.072;3.712;2022-09-29T00:52:54;10.40;99.90
22925;DHT22;11628;51.072;3.712;2022-09-29T00:55:32;10.50;99.90
22925;DHT22;11628;51.072;3.712;2022-09-29T00:58:00;10.50;99.90
22925;DHT22;11628;51.072;3.712;2022-09-29T01:00:28;10.40;99.90
22925;DHT22;11628;51.072;3.712;2022-09-29T01:03:02;10.40;99.90
22925;DHT22;11628;51.072;3.712;2022-09-29T01:05:35;10.50;99.90
22925;DHT22;11628;51.072;3.712;2022-09-29T01:08:08;10.70;99.90
22925;DHT22;11628;51.072;3.712;2022-09-29T01:10:37;10.70;99.90
22925;DHT22;11628;51.072;3.712;2022-09-29T01:13:03;10.60;99.90
22925;DHT22;11628;51.072;3.712;2022-09-29T01:15:29;10.50;99.90
22925;DHT22;11628;51.072;3.712;2022-09-29T01:17:56;10.50;99.90
22925;DHT22;11628;51.072;3.712;2022-09-29T01:20:23;10.40;99.90
22925;DHT22;11628;51.072;3.712;2022-09-29T01:23:17;10.40;99.90
22925;DHT22;11628;51.072;3.712;2022-09-29T01:25:51;10.30;99.90
22925;DHT22;11628;51.072;3.712;2022-09-29T01:34:26;10.40;99.90
22925;DHT22;11628;51.072;3.712;2022-09-29T01:37:20;10.40;99.90
22925;DHT22;11628;51.072;3.712;2022-09-29T01:40:10;10.40;99.90
22925;DHT22;11628;51.072;3.712;2022-09-29T01:45:41;10.40;99.90
22925;DHT22;11628;51.072;3.712;2022-09-29T01:48:17;10.40;99.90
22925;DHT22;11628;51.072;3.712;2022-09-29T01:50:47;10.30;99.90
22925;DHT22;11628;51.072;3.712;2022-09-29T01:53:33;10.20;99.90
22925;DHT22;11628;51.072;3.712;2022-09-29T01:56:04;10.10;99.90
22925;DHT22;11628;51.072;3.712;2022-09-29T01:58:42;10.10;99.90
22925;DHT22;11628;51.072;3.712;2022-09-29T02:01:12;10.10;99.90
22925;DHT22;11628;51.072;3.712;2022-09-29T02:04:03;10.10;99.90
22925;DHT22;11628;51.072;3.712;2022-09-29T02:06:34;10.10;99.90
22925;DHT22;11628;51.072;3.712;2022-09-29T02:09:08;10.10;99.90
22925;DHT22;11628;51.072;3.712;2022-09-29T02:11:37;10.10;99.90
22925;DHT22;11628;51.072;3.712;2022-09-29T02:14:29;10.10;99.90
22925;DHT22;11628;51.072;3.712;2022-09-29T02:17:06;10.10;99.90
22925;DHT22;11628;51.072;3.712;2022-09-29T02:19:41;10.00;99.90
22925;DHT22;11628;51.072;3.712;2022-09-29T02:22:08;10.10;99.90
22925;DHT22;11628;51.072;3.712;2022-09-29T02:24:37;10.00;99.90
22925;DHT22;11628;51.072;3.712;2022-09-29T02:27:04;10.00;99.90
22925;DHT22;11628;51.072;3.712;2022-09-29T02:29:32;9.90;99.90
22925;DHT22;11628;51.072;3.712;2022-09-29T02:31:58;9.90;99.90
22925;DHT22;11628;51.072;3.712;2022-09-29T02:34:28;9.90;99.90
22925;DHT22;11628;51.072;3.712;2022-09-29T02:45:12;9.90;99.90
22925;DHT22;11628;51.072;3.712;2022-09-29T02:54:06;10.00;99.90
22925;DHT22;11628;51.072;3.712;2022-09-29T02:59:51;9.90;99.90
22925;DHT22;11628;51.072;3.712;2022-09-29T03:02:25;9.70;99.90
22925;DHT22;11628;51.072;3.712;2022-09-29T03:04:52;9.70;99.90
22925;DHT22;11628;51.072;3.712;2022-09-29T03:07:19;9.70;99.90
22925;DHT22;11628;51.072;3.712;2022-09-29T03:09:45;9.70;99.90
22925;DHT22;11628;51.072;3.712;2022-09-29T03:12:10;9.70;99.90
22925;DHT22;11628;51.072;3.712;2022-09-29T03:14:37;9.60;99.90
22925;DHT22;11628;51.072;3.712;2022-09-29T03:17:03;9.60;99.90
22925;DHT22;11628;51.072;3.712;2022-09-29T03:19:28;9.50;99.90
22925;DHT22;11628;51.072;3.712;2022-09-29T03:21:54;9.50;99.90
22925;DHT22;11628;51.072;3.712;2022-09-29T03:24:20;9.40;99.90
22925;DHT22;11628;51.072;3.712;2022-09-29T03:26:45;9.40;99.90
22925;DHT22;11628;51.072;3.712;2022-09-29T03:29:11;9.30;99.90
22925;DHT22;11628;51.072;3.712;2022-09-29T03:31:39;9.30;99.90
22925;DHT22;11628;51.072;3.712;2022-09-29T03:34:05;9.20;99.90
22925;DHT22;11628;51.072;3.712;2022-09-29T03:36:31;9.20;99.90
22925;DHT22;11628;51.072;3.712;2022-09-29T03:38:56;9.20;99.90
22925;DHT22;11628;51.072;3.712;2022-09-29T03:41:22;9.20;99.90
22925;DHT22;11628;51.072;3.712;2022-09-29T03:43:48;9.20;99.90
22925;DHT22;11628;51.072;3.712;2022-09-29T03:46:14;9.30;99.90
22925;DHT22;11628;51.072;3.712;2022-09-29T03:48:39;9.30;99.90
22925;DHT22;11628;51.072;3.712;2022-09-29T03:51:05;9.40;99.90
22925;DHT22;11628;51.072;3.712;2022-09-29T03:53:36;9.60;99.90
22925;DHT22;11628;51.072;3.712;2022-09-29T03:56:02;9.80;99.90
22925;DHT22;11628;51.072;3.712;2022-09-29T03:58:28;9.90;99.90
22925;DHT22;11628;51.072;3.712;2022-09-29T04:00:54;10.10;99.90
22925;DHT22;11628;51.072;3.712;2022-09-29T04:03:20;10.00;99.90
22925;DHT22;11628;51.072;3.712;2022-09-29T04:05:47;9.80;99.90
22925;DHT22;11628;51.072;3.712;2022-09-29T04:08:13;9.70;99.90
22925;DHT22;11628;51.072;3.712;2022-09-29T04:10:39;9.70;99.90
22925;DHT22;11628;51.072;3.712;2022-09-29T04:13:06;9.60;99.90
22925;DHT22;11628;51.072;3.712;2022-09-29T04:15:32;9.60;99.90
22925;DHT22;11628;51.072;3.712;2022-09-29T04:17:58;9.60;99.90
22925;DHT22;11628;51.072;3.712;2022-09-29T04:20:24;9.60;99.90
22925;DHT22;11628;51.072;3.712;2022-09-29T04:22:50;9.60;99.90
22925;DHT22;11628;51.072;3.712;2022-09-29T04:25:16;9.50;99.90
22925;DHT22;11628;51.072;3.712;2022-09-29T04:27:43;9.60;99.90
22925;DHT22;11628;51.072;3.712;2022-09-29T04:30:09;9.80;99.90
22925;DHT22;11628;51.072;3.712;2022-09-29T04:32:35;9.80;99.90
22925;DHT22;11628;51.072;3.712;2022-09-29T04:35:01;9.70;99.90
22925;DHT22;11628;51.072;3.712;2022-09-29T04:37:27;9.70;99.90
22925;DHT22;11628;51.072;3.712;2022-09-29T04:39:53;9.70;99.90
22925;DHT22;11628;51.072;3.712;2022-09-29T04:42:19;9.70;99.90
22925;DHT22;11628;51.072;3.712;2022-09-29T04:44:45;9.60;99.90
22925;DHT22;11628;51.072;3.712;2022-09-29T04:47:11;9.80;99.90
22925;DHT22;11628;51.072;3.712;2022-09-29T04:49:36;9.90;99.90
22925;DHT22;11628;51.072;3.712;2022-09-29T04:52:02;10.00;99.90
22925;DHT22;11628;51.072;3.712;2022-09-29T04:54:34;10.10;99.90
22925;DHT22;11628;51.072;3.712;2022-09-29T04:57:00;10.10;99.90
22925;DHT22;11628;51.072;3.712;2022-09-29T04:59:26;10.10;99.90
22925;DHT22;11628;51.072;3.712;2022-09-29T05:01:52;10.20;99.90
22925;DHT22;11628;51.072;3.712;2022-09-29T05:04:18;10.10;99.90
22925;DHT22;11628;51.072;3.712;2022-09-29T05:06:44;10.20;99.90
22925;DHT22;11628;51.072;3.712;2022-09-29T05:09:10;10.10;99.90
22925;DHT22;11628;51.072;3.712;2022-09-29T05:11:35;10.10;99.90
22925;DHT22;11628;51.072;3.712;2022-09-29T05:14:01;10.10;99.90
22925;DHT22;11628;51.072;3.712;2022-09-29T05:16:27;10.10;99.90
22925;DHT22;11628;51.072;3.712;2022-09-29T05:18:53;10.10;99.90
22925;DHT22;11628;51.072;3.712;2022-09-29T05:21:19;10.10;99.90
22925;DHT22;11628;51.072;3.712;2022-09-29T05:23:44;10.10;99.90
22925;DHT22;11628;51.072;3.712;2022-09-29T05:26:11;10.00;99.90
22925;DHT22;11628;51.072;3.712;2022-09-29T05:28:42;9.80;99.90
22925;DHT22;11628;51.072;3.712;2022-09-29T05:31:08;9.70;99.90
22925;DHT22;11628;51.072;3.712;2022-09-29T05:33:35;9.60;99.90
22925;DHT22;11628;51.072;3.712;2022-09-29T05:36:05;9.60;99.90
22925;DHT22;11628;51.072;3.712;2022-09-29T05:38:32;9.50;99.90
22925;DHT22;11628;51.072;3.712;2022-09-29T05:41:07;9.40;99.90
22925;DHT22;11628;51.072;3.712;2022-09-29T05:43:33;9.30;99.90
22925;DHT22;11628;51.072;3.712;2022-09-29T05:46:03;9.30;99.90
22925;DHT22;11628;51.072;3.712;2022-09-29T05:48:29;9.40;99.90
22925;DHT22;11628;51.072;3.712;2022-09-29T05:54:17;9.50;99.90
22925;DHT22;11628;51.072;3.712;2022-09-29T05:56:43;9.40;99.90
22925;DHT22;11628;51.072;3.712;2022-09-29T05:59:09;9.40;99.90
22925;DHT22;11628;51.072;3.712;2022-09-29T06:01:35;9.40;99.90
22925;DHT22;11628;51.072;3.712;2022-09-29T06:04:01;9.50;99.90
22925;DHT22;11628;51.072;3.712;2022-09-29T06:06:28;9.50;99.90
22925;DHT22;11628;51.072;3.712;2022-09-29T06:08:56;9.60;99.90
22925;DHT22;11628;51.072;3.712;2022-09-29T06:11:28;9.70;99.90
22925;DHT22;11628;51.072;3.712;2022-09-29T06:13:55;9.70;99.90
22925;DHT22;11628;51.072;3.712;2022-09-29T06:16:24;9.80;99.90
22925;DHT22;11628;51.072;3.712;2022-09-29T06:18:50;10.00;99.90
22925;DHT22;11628;51.072;3.712;2022-09-29T06:21:24;10.10;99.90
22925;DHT22;11628;51.072;3.712;2022-09-29T06:23:50;10.30;99.90
22925;DHT22;11628;51.072;3.712;2022-09-29T06:26:18;10.40;99.90
22925;DHT22;11628;51.072;3.712;2022-09-29T06:28:44;10.20;99.90
22925;DHT22;11628;51.072;3.712;2022-09-29T06:31:13;10.10;99.90
22925;DHT22;11628;51.072;3.712;2022-09-29T06:33:39;10.00;99.90
22925;DHT22;11628;51.072;3.712;2022-09-29T06:36:19;10.10;99.90
22925;DHT22;11628;51.072;3.712;2022-09-29T06:39:06;10.10;99.90
22925;DHT22;11628;51.072;3.712;2022-09-29T06:41:32;10.20;99.90
22925;DHT22;11628;51.072;3.712;2022-09-29T06:44:00;10.20;99.90
22925;DHT22;11628;51.072;3.712;2022-09-29T06:46:26;10.10;99.90
22925;DHT22;11628;51.072;3.712;2022-09-29T06:48:53;10.30;99.90
22925;DHT22;11628;51.072;3.712;2022-09-29T06:51:19;10.30;99.90
22925;DHT22;11628;51.072;3.712;2022-09-29T06:53:47;10.20;99.90
22925;DHT22;11628;51.072;3.712;2022-09-29T06:56:13;10.30;99.90
22925;DHT22;11628;51.072;3.712;2022-09-29T06:58:38;10.50;99.90
22925;DHT22;11628;51.072;3.712;2022-09-29T07:01:05;10.80;99.90
22925;DHT22;11628;51.072;3.712;2022-09-29T07:03:31;10.90;99.90
22925;DHT22;11628;51.072;3.712;2022-09-29T07:06:01;10.80;99.90
22925;DHT22;11628;51.072;3.712;2022-09-29T07:08:27;10.90;99.90
22925;DHT22;11628;51.072;3.712;2022-09-29T07:10:53;11.00;99.90
22925;DHT22;11628;51.072;3.712;2022-09-29T07:13:20;10.90;99.90
22925;DHT22;11628;51.072;3.712;2022-09-29T07:15:46;10.90;99.90
22925;DHT22;11628;51.072;3.712;2022-09-29T07:18:12;10.90;99.90
22925;DHT22;11628;51.072;3.712;2022-09-29T07:20:38;11.10;99.90
22925;DHT22;11628;51.072;3.712;2022-09-29T07:23:05;11.50;99.90
22925;DHT22;11628;51.072;3.712;2022-09-29T07:25:33;11.60;99.90
22925;DHT22;11628;51.072;3.712;2022-09-29T07:27:59;11.80;99.90
22925;DHT22;11628;51.072;3.712;2022-09-29T07:30:25;12.00;99.90
22925;DHT22;11628;51.072;3.712;2022-09-29T07:32:52;12.20;99.90
22925;DHT22;11628;51.072;3.712;2022-09-29T07:35:20;12.30;99.90
22925;DHT22;11628;51.072;3.712;2022-09-29T07:37:53;12.20;99.90
22925;DHT22;11628;51.072;3.712;2022-09-29T07:40:22;12.50;99.90
22925;DHT22;11628;51.072;3.712;2022-09-29T07:42:49;12.70;99.90
22925;DHT22;11628;51.072;3.712;2022-09-29T07:45:16;13.60;99.90
22925;DHT22;11628;51.072;3.712;2022-09-29T07:47:42;15.20;99.90
22925;DHT22;11628;51.072;3.712;2022-09-29T07:50:08;17.10;99.90
22925;DHT22;11628;51.072;3.712;2022-09-29T07:52:34;18.20;99.90
22925;DHT22;11628;51.072;3.712;2022-09-29T07:55:00;17.90;99.90
22925;DHT22;11628;51.072;3.712;2022-09-29T07:57:26;18.90;99.90
22925;DHT22;11628;51.072;3.712;2022-09-29T07:59:52;18.80;99.90
22925;DHT22;11628;51.072;3.712;2022-09-29T08:02:19;19.20;99.90
22925;DHT22;11628;51.072;3.712;2022-09-29T08:04:45;19.40;99.90
22925;DHT22;11628;51.072;3.712;2022-09-29T08:07:11;20.70;99.90
22925;DHT22;11628;51.072;3.712;2022-09-29T08:09:36;20.90;99.90
22925;DHT22;11628;51.072;3.712;2022-09-29T08:12:02;21.80;99.90
22925;DHT22;11628;51.072;3.712;2022-09-29T08:14:28;23.00;99.90
22925;DHT22;11628;51.072;3.712;2022-09-29T08:16:54;23.40;99.90
22925;DHT22;11628;51.072;3.712;2022-09-29T08:19:19;24.70;99.90
22925;DHT22;11628;51.072;3.712;2022-09-29T08:21:45;26.00;99.90
22925;DHT22;11628;51.072;3.712;2022-09-29T08:24:14;27.40;95.60
22925;DHT22;11628;51.072;3.712;2022-09-29T08:26:42;27.70;94.10
22925;DHT22;11628;51.072;3.712;2022-09-29T08:29:08;26.90;93.40
22925;DHT22;11628;51.072;3.712;2022-09-29T08:31:34;26.30;94.30
22925;DHT22;11628;51.072;3.712;2022-09-29T08:34:01;26.50;93.00
22925;DHT22;11628;51.072;3.712;2022-09-29T08:36:28;26.80;93.50
22925;DHT22;11628;51.072;3.712;2022-09-29T08:38:56;27.90;92.30
22925;DHT22;11628;51.072;3.712;2022-09-29T08:41:56;30.10;90.20
22925;DHT22;11628;51.072;3.712;2022-09-29T08:44:34;29.50;87.90
22925;DHT22;11628;51.072;3.712;2022-09-29T08:47:24;29.30;86.70
22925;DHT22;11628;51.072;3.712;2022-09-29T08:50:04;30.80;85.00
22925;DHT22;11628;51.072;3.712;2022-09-29T08:52:37;32.30;81.80
22925;DHT22;11628;51.072;3.712;2022-09-29T08:57:43;34.80;74.20
22925;DHT22;11628;51.072;3.712;2022-09-29T09:00:12;32.60;72.80
22925;DHT22;11628;51.072;3.712;2022-09-29T09:10:44;36.90;64.90
22925;DHT22;11628;51.072;3.712;2022-09-29T09:16:08;37.60;61.90
22925;DHT22;11628;51.072;3.712;2022-09-29T09:21:24;39.70;57.40
22925;DHT22;11628;51.072;3.712;2022-09-29T09:23:57;40.80;54.60
22925;DHT22;11628;51.072;3.712;2022-09-29T09:26:38;41.50;53.50
22925;DHT22;11628;51.072;3.712;2022-09-29T09:32:14;37.70;54.00
22925;DHT22;11628;51.072;3.712;2022-09-29T09:37:40;39.80;53.10
22925;DHT22;11628;51.072;3.712;2022-09-29T09:40:23;41.00;51.80
22925;DHT22;11628;51.072;3.712;2022-09-29T09:42:53;42.00;50.00
22925;DHT22;11628;51.072;3.712;2022-09-29T09:45:29;42.90;48.80
22925;DHT22;11628;51.072;3.712;2022-09-29T09:48:06;40.70;49.80
22925;DHT22;11628;51.072;3.712;2022-09-29T09:50:39;39.30;50.20
22925;DHT22;11628;51.072;3.712;2022-09-29T09:56:04;34.90;54.60
22925;DHT22;11628;51.072;3.712;2022-09-29T10:01:19;39.50;51.00
22925;DHT22;11628;51.072;3.712;2022-09-29T10:03:45;42.10;48.60
22925;DHT22;11628;51.072;3.712;2022-09-29T10:06:11;43.40;46.80
22925;DHT22;11628;51.072;3.712;2022-09-29T10:08:39;44.30;46.20
22925;DHT22;11628;51.072;3.712;2022-09-29T10:11:25;45.10;45.00
22925;DHT22;11628;51.072;3.712;2022-09-29T10:14:10;45.90;44.00
22925;DHT22;11628;51.072;3.712;2022-09-29T10:16:49;46.40;43.00
22925;DHT22;11628;51.072;3.712;2022-09-29T10:19:50;46.90;42.20
22925;DHT22;11628;51.072;3.712;2022-09-29T10:22:13;47.30;41.50
22925;DHT22;11628;51.072;3.712;2022-09-29T10:24:39;42.40;43.80
22925;DHT22;11628;51.072;3.712;2022-09-29T10:27:04;37.80;47.30
22925;DHT22;11628;51.072;3.712;2022-09-29T10:29:36;37.10;49.20
22925;DHT22;11628;51.072;3.712;2022-09-29T10:32:30;38.10;48.50
22925;DHT22;11628;51.072;3.712;2022-09-29T10:35:14;37.80;49.10
22925;DHT22;11628;51.072;3.712;2022-09-29T10:37:45;40.90;46.50
22925;DHT22;11628;51.072;3.712;2022-09-29T10:40:17;43.20;43.10
22925;DHT22;11628;51.072;3.712;2022-09-29T10:42:46;43.90;42.30
22925;DHT22;11628;51.072;3.712;2022-09-29T10:45:26;41.40;43.50
22925;DHT22;11628;51.072;3.712;2022-09-29T10:53:45;37.50;47.70
22925;DHT22;11628;51.072;3.712;2022-09-29T10:56:19;40.20;45.10
22925;DHT22;11628;51.072;3.712;2022-09-29T10:58:59;42.30;44.10
22925;DHT22;11628;51.072;3.712;2022-09-29T11:01:27;44.10;42.50
22925;DHT22;11628;51.072;3.712;2022-09-29T11:06:30;46.20;40.40
22925;DHT22;11628;51.072;3.712;2022-09-29T11:17:01;43.90;41.50
22925;DHT22;11628;51.072;3.712;2022-09-29T11:19:30;40.50;44.20
22925;DHT22;11628;51.072;3.712;2022-09-29T11:30:18;30.70;55.40
22925;DHT22;11628;51.072;3.712;2022-09-29T11:33:06;29.30;58.00
22925;DHT22;11628;51.072;3.712;2022-09-29T11:36:03;28.20;59.70
22925;DHT22;11628;51.072;3.712;2022-09-29T11:41:45;26.20;63.40
22925;DHT22;11628;51.072;3.712;2022-09-29T11:44:32;25.50;64.20
22925;DHT22;11628;51.072;3.712;2022-09-29T11:49:34;24.30;67.70
22925;DHT22;11628;51.072;3.712;2022-09-29T11:55:40;23.70;68.10
22925;DHT22;11628;51.072;3.712;2022-09-29T11:58:50;23.40;69.80
22925;DHT22;11628;51.072;3.712;2022-09-29T12:12:12;23.70;74.70
22925;DHT22;11628;51.072;3.712;2022-09-29T12:14:52;24.00;73.70
22925;DHT22;11628;51.072;3.712;2022-09-29T12:17:23;24.50;72.80
22925;DHT22;11628;51.072;3.712;2022-09-29T12:19:59;25.10;71.70
22925;DHT22;11628;51.072;3.712;2022-09-29T12:22:27;25.50;68.70
22925;DHT22;11628;51.072;3.712;2022-09-29T12:24:54;25.60;68.80
22925;DHT22;11628;51.072;3.712;2022-09-29T12:27:22;25.50;69.60
22925;DHT22;11628;51.072;3.712;2022-09-29T12:30:05;25.40;68.90
22925;DHT22;11628;51.072;3.712;2022-09-29T12:32:40;25.20;69.40
22925;DHT22;11628;51.072;3.712;2022-09-29T12:35:16;24.90;70.30
22925;DHT22;11628;51.072;3.712;2022-09-29T12:37:54;24.70;69.90
22925;DHT22;11628;51.072;3.712;2022-09-29T12:40:57;24.60;70.20
22925;DHT22;11628;51.072;3.712;2022-09-29T12:43:31;24.90;68.90
22925;DHT22;11628;51.072;3.712;2022-09-29T12:46:06;25.20;68.10
22925;DHT22;11628;51.072;3.712;2022-09-29T12:48:45;26.20;67.30
22925;DHT22;11628;51.072;3.712;2022-09-29T12:51:46;27.00;65.00
22925;DHT22;11628;51.072;3.712;2022-09-29T12:57:08;27.30;65.20
22925;DHT22;11628;51.072;3.712;2022-09-29T13:11:00;35.00;55.10
22925;DHT22;11628;51.072;3.712;2022-09-29T13:16:38;38.20;50.30
22925;DHT22;11628;51.072;3.712;2022-09-29T13:22:05;40.60;47.20
22925;DHT22;11628;51.072;3.712;2022-09-29T13:25:04;40.90;46.50
22925;DHT22;11628;51.072;3.712;2022-09-29T13:27:41;40.00;46.80
22925;DHT22;11628;51.072;3.712;2022-09-29T13:30:26;38.00;48.70
22925;DHT22;11628;51.072;3.712;2022-09-29T13:33:15;37.00;49.60
22925;DHT22;11628;51.072;3.712;2022-09-29T13:35:41;35.40;50.70
22925;DHT22;11628;51.072;3.712;2022-09-29T13:38:19;33.20;52.10
22925;DHT22;11628;51.072;3.712;2022-09-29T13:41:31;31.50;55.30
22925;DHT22;11628;51.072;3.712;2022-09-29T13:44:01;29.80;58.70
22925;DHT22;11628;51.072;3.712;2022-09-29T13:51:59;27.30;65.40
22925;DHT22;11628;51.072;3.712;2022-09-29T13:54:26;26.30;69.60
22925;DHT22;11628;51.072;3.712;2022-09-29T13:59:28;24.70;75.20
22925;DHT22;11628;51.072;3.712;2022-09-29T14:01:54;24.20;75.00
22925;DHT22;11628;51.072;3.712;2022-09-29T14:04:44;23.70;77.10
22925;DHT22;11628;51.072;3.712;2022-09-29T14:12:45;21.80;85.50
22925;DHT22;11628;51.072;3.712;2022-09-29T14:15:15;21.40;86.70
22925;DHT22;11628;51.072;3.712;2022-09-29T14:17:50;21.10;87.70
22925;DHT22;11628;51.072;3.712;2022-09-29T14:20:21;20.90;89.30
22925;DHT22;11628;51.072;3.712;2022-09-29T14:22:52;20.70;90.30
22925;DHT22;11628;51.072;3.712;2022-09-29T14:27:46;20.30;91.10
22925;DHT22;11628;51.072;3.712;2022-09-29T14:33:03;20.30;90.80
22925;DHT22;11628;51.072;3.712;2022-09-29T14:35:35;20.30;91.00
22925;DHT22;11628;51.072;3.712;2022-09-29T14:38:29;20.30;91.30
22925;DHT22;11628;51.072;3.712;2022-09-29T14:43:25;20.20;92.00
22925;DHT22;11628;51.072;3.712;2022-09-29T14:46:11;20.00;92.30
22925;DHT22;11628;51.072;3.712;2022-09-29T15:03:22;26.20;77.80
22925;DHT22;11628;51.072;3.712;2022-09-29T15:06:03;27.10;74.50
22925;DHT22;11628;51.072;3.712;2022-09-29T15:08:38;27.90;71.40
22925;DHT22;11628;51.072;3.712;2022-09-29T15:13:48;27.70;69.60
22925;DHT22;11628;51.072;3.712;2022-09-29T15:16:42;27.90;69.80
22925;DHT22;11628;51.072;3.712;2022-09-29T15:27:32;30.10;65.70
22925;DHT22;11628;51.072;3.712;2022-09-29T15:30:01;30.60;65.40
22925;DHT22;11628;51.072;3.712;2022-09-29T15:32:29;30.70;64.20
22925;DHT22;11628;51.072;3.712;2022-09-29T15:35:02;30.10;66.30
22925;DHT22;11628;51.072;3.712;2022-09-29T15:40:56;29.80;65.50
22925;DHT22;11628;51.072;3.712;2022-09-29T15:43:37;29.50;65.90
22925;DHT22;11628;51.072;3.712;2022-09-29T15:46:20;29.10;67.60
22925;DHT22;11628;51.072;3.712;2022-09-29T15:51:30;27.30;70.40
22925;DHT22;11628;51.072;3.712;2022-09-29T15:53:56;27.00;72.60
22925;DHT22;11628;51.072;3.712;2022-09-29T15:56:24;26.60;72.70
22925;DHT22;11628;51.072;3.712;2022-09-29T15:58:50;26.00;74.80
22925;DHT22;11628;51.072;3.712;2022-09-29T16:01:16;25.60;76.10
22925;DHT22;11628;51.072;3.712;2022-09-29T16:03:56;25.20;76.40
22925;DHT22;11628;51.072;3.712;2022-09-29T16:06:27;24.50;78.20
22925;DHT22;11628;51.072;3.712;2022-09-29T16:09:02;24.00;79.40
22925;DHT22;11628;51.072;3.712;2022-09-29T16:11:36;23.50;80.40
22925;DHT22;11628;51.072;3.712;2022-09-29T16:16:39;22.60;83.70
22925;DHT22;11628;51.072;3.712;2022-09-29T16:19:32;22.50;84.90
22925;DHT22;11628;51.072;3.712;2022-09-29T16:22:03;22.30;84.50
22925;DHT22;11628;51.072;3.712;2022-09-29T16:24:33;22.10;84.90
22925;DHT22;11628;51.072;3.712;2022-09-29T16:27:00;21.90;86.20
22925;DHT22;11628;51.072;3.712;2022-09-29T16:29:36;21.70;87.10
22925;DHT22;11628;51.072;3.712;2022-09-29T16:38:28;21.20;89.40
22925;DHT22;11628;51.072;3.712;2022-09-29T16:41:07;21.10;88.40
22925;DHT22;11628;51.072;3.712;2022-09-29T16:43:34;21.00;88.50
22925;DHT22;11628;51.072;3.712;2022-09-29T16:46:05;21.00;89.40
22925;DHT22;11628;51.072;3.712;2022-09-29T16:48:40;20.90;89.10
22925;DHT22;11628;51.072;3.712;2022-09-29T16:51:17;20.80;89.40
22925;DHT22;11628;51.072;3.712;2022-09-29T16:53:44;20.70;90.00
22925;DHT22;11628;51.072;3.712;2022-09-29T16:56:17;20.70;90.10
22925;DHT22;11628;51.072;3.712;2022-09-29T16:58:44;20.60;90.40
22925;DHT22;11628;51.072;3.712;2022-09-29T17:01:11;20.40;90.90
22925;DHT22;11628;51.072;3.712;2022-09-29T17:03:40;20.30;91.10
22925;DHT22;11628;51.072;3.712;2022-09-29T17:06:07;20.20;91.60
22925;DHT22;11628;51.072;3.712;2022-09-29T17:08:33;20.00;92.20
22925;DHT22;11628;51.072;3.712;2022-09-29T17:10:59;19.80;92.60
22925;DHT22;11628;51.072;3.712;2022-09-29T17:13:31;19.60;93.20
22925;DHT22;11628;51.072;3.712;2022-09-29T17:15:58;19.40;93.90
22925;DHT22;11628;51.072;3.712;2022-09-29T17:18:25;19.20;94.70
22925;DHT22;11628;51.072;3.712;2022-09-29T17:20:53;19.10;95.30
22925;DHT22;11628;51.072;3.712;2022-09-29T17:23:22;18.90;95.80
22925;DHT22;11628;51.072;3.712;2022-09-29T17:25:48;18.80;96.40
22925;DHT22;11628;51.072;3.712;2022-09-29T17:28:20;18.60;97.30
22925;DHT22;11628;51.072;3.712;2022-09-29T17:30:50;18.40;98.10
22925;DHT22;11628;51.072;3.712;2022-09-29T17:33:17;18.30;98.80
22925;DHT22;11628;51.072;3.712;2022-09-29T17:35:48;18.20;99.50
22925;DHT22;11628;51.072;3.712;2022-09-29T17:38:16;18.00;99.90
22925;DHT22;11628;51.072;3.712;2022-09-29T17:40:55;17.90;99.90
22925;DHT22;11628;51.072;3.712;2022-09-29T17:43:47;17.80;99.90
22925;DHT22;11628;51.072;3.712;2022-09-29T17:46:14;17.70;99.90
22925;DHT22;11628;51.072;3.712;2022-09-29T17:48:40;17.60;99.90
22925;DHT22;11628;51.072;3.712;2022-09-29T17:51:11;17.50;99.90
22925;DHT22;11628;51.072;3.712;2022-09-29T17:53:36;17.40;99.90
22925;DHT22;11628;51.072;3.712;2022-09-29T17:56:02;17.30;99.90
22925;DHT22;11628;51.072;3.712;2022-09-29T17:58:29;17.20;99.90
22925;DHT22;11628;51.072;3.712;2022-09-29T18:00:56;17.10;99.90
22925;DHT22;11628;51.072;3.712;2022-09-29T18:03:22;17.10;99.90
22925;DHT22;11628;51.072;3.712;2022-09-29T18:05:53;17.00;99.90
22925;DHT22;11628;51.072;3.712;2022-09-29T18:08:26;16.90;99.90
22925;DHT22;11628;51.072;3.712;2022-09-29T18:11:15;16.80;99.90
22925;DHT22;11628;51.072;3.712;2022-09-29T18:13:41;16.70;99.90
22925;DHT22;11628;51.072;3.712;2022-09-29T18:16:13;16.70;99.90
22925;DHT22;11628;51.072;3.712;2022-09-29T18:18:39;16.60;99.90
22925;DHT22;11628;51.072;3.712;2022-09-29T18:21:06;16.50;99.90
22925;DHT22;11628;51.072;3.712;2022-09-29T18:23:32;16.40;99.90
22925;DHT22;11628;51.072;3.712;2022-09-29T18:26:00;16.40;99.90
22925;DHT22;11628;51.072;3.712;2022-09-29T18:28:26;16.30;99.90
22925;DHT22;11628;51.072;3.712;2022-09-29T18:31:22;16.20;99.90
22925;DHT22;11628;51.072;3.712;2022-09-29T18:33:48;16.10;99.90
22925;DHT22;11628;51.072;3.712;2022-09-29T18:36:14;16.00;99.90
22925;DHT22;11628;51.072;3.712;2022-09-29T18:38:41;16.00;99.90
22925;DHT22;11628;51.072;3.712;2022-09-29T18:41:12;15.90;99.90
22925;DHT22;11628;51.072;3.712;2022-09-29T18:43:40;15.80;99.90
22925;DHT22;11628;51.072;3.712;2022-09-29T18:46:06;15.70;99.90
22925;DHT22;11628;51.072;3.712;2022-09-29T18:48:33;15.60;99.90
22925;DHT22;11628;51.072;3.712;2022-09-29T18:51:05;15.60;99.90
22925;DHT22;11628;51.072;3.712;2022-09-29T18:53:30;15.40;99.90
22925;DHT22;11628;51.072;3.712;2022-09-29T18:56:01;15.40;99.90
22925;DHT22;11628;51.072;3.712;2022-09-29T18:58:27;15.20;99.90
22925;DHT22;11628;51.072;3.712;2022-09-29T19:00:54;15.00;99.90